Time;durP1;ratioP1;P1;durP2;ratioP2;P2;SDS_P1;SDS_P2;PMS_P1;PMS_P2;Temp;Humidity;BMP_temperature;BMP_pressure;BME280_temperature;BME280_humidity;BME280_pressure;Samples;Min_cycle;Max_cycle;Signal;HPM_P1;HPM_P2
2022/07/24 00:02:09;;;;;;;1.20;0.63;;;20.00;99.90;;;;;;4939127;29;20047;-79
2022/07/24 00:04:37;;;;;;;0.77;0.50;;;20.30;99.90;;;;;;4953808;28;20046;-77
2022/07/24 00:07:04;;;;;;;1.50;0.45;;;20.80;99.90;;;;;;4936302;29;20110;-73
2022/07/24 00:09:32;;;;;;;0.88;0.63;;;21.00;99.90;;;;;;4940532;29;20034;-80
2022/07/24 00:11:59;;;;;;;1.77;0.90;;;21.20;99.90;;;;;;4951689;29;20568;-78
2022/07/24 00:14:27;;;;;;;0.88;0.80;;;21.50;99.90;;;;;;4952409;29;20031;-79
2022/07/24 00:16:55;;;;;;;0.95;0.50;;;21.80;98.70;;;;;;4939589;28;20419;-77
2022/07/24 00:19:22;;;;;;;1.48;0.75;;;21.60;98.90;;;;;;4935593;29;20031;-77
2022/07/24 00:21:49;;;;;;;1.50;1.33;;;21.70;99.90;;;;;;4942227;29;20039;-80
2022/07/24 00:24:17;;;;;;;1.25;0.70;;;21.90;99.70;;;;;;4952620;28;20031;-79
2022/07/24 00:26:44;;;;;;;1.65;1.13;;;22.20;99.00;;;;;;4953189;29;20031;-78
2022/07/24 00:29:12;;;;;;;1.55;1.05;;;22.70;99.90;;;;;;4956759;29;20090;-81
2022/07/24 00:31:39;;;;;;;0.82;0.40;;;22.80;98.80;;;;;;4946077;29;20497;-82
2022/07/24 00:34:07;;;;;;;2.03;0.40;;;22.80;98.50;;;;;;4953706;28;20047;-76
2022/07/24 00:36:34;;;;;;;0.45;0.40;;;23.10;98.50;;;;;;4955231;28;20490;-76
2022/07/24 00:39:02;;;;;;;1.33;0.45;;;23.40;97.80;;;;;;4951745;28;20114;-84
2022/07/24 00:41:29;;;;;;;0.40;0.40;;;23.10;97.40;;;;;;4951236;29;20182;-82
2022/07/24 00:44:03;;;;;;;1.25;0.95;;;23.30;98.00;;;;;;4948424;28;20130;-85
2022/07/24 00:46:30;;;;;;;0.65;0.47;;;23.30;97.00;;;;;;4943929;28;20023;-86
2022/07/24 00:48:58;;;;;;;1.60;0.40;;;23.60;97.90;;;;;;4951277;29;20508;-77
2022/07/24 00:51:26;;;;;;;0.40;0.30;;;23.60;97.30;;;;;;4945265;28;20075;-83
2022/07/24 00:53:53;;;;;;;1.10;0.40;;;23.40;98.10;;;;;;4945880;28;20122;-79
2022/07/24 00:56:21;;;;;;;0.93;0.47;;;23.50;97.70;;;;;;4947544;28;20027;-85
2022/07/24 00:58:49;;;;;;;2.42;0.30;;;23.90;96.90;;;;;;4938863;29;20119;-80
2022/07/24 01:01:18;;;;;;;0.80;0.30;;;24.20;97.10;;;;;;4947179;28;20068;-82
2022/07/24 01:03:46;;;;;;;0.30;0.30;;;24.80;96.60;;;;;;4924165;29;20034;-78
2022/07/24 01:06:14;;;;;;;0.50;0.25;;;24.70;95.90;;;;;;4946640;29;20098;-82
2022/07/24 01:08:43;;;;;;;0.60;0.30;;;24.90;95.40;;;;;;4946840;29;20553;-85
2022/07/24 01:11:10;;;;;;;1.00;0.30;;;25.00;95.00;;;;;;4953628;28;20035;-83
2022/07/24 01:13:39;;;;;;;0.82;0.40;;;24.70;95.00;;;;;;4949549;28;20167;-81
2022/07/24 01:16:07;;;;;;;0.30;0.30;;;24.70;95.90;;;;;;4952930;29;20060;-84
2022/07/24 01:18:35;;;;;;;1.95;0.30;;;24.70;95.30;;;;;;4936307;29;20038;-83
2022/07/24 01:21:03;;;;;;;0.60;0.30;;;25.10;95.10;;;;;;4953983;29;20034;-81
2022/07/24 01:23:30;;;;;;;0.50;0.40;;;24.70;95.50;;;;;;4936480;28;20039;-81
2022/07/24 01:25:58;;;;;;;1.05;0.20;;;25.10;95.90;;;;;;4946095;28;20036;-81
2022/07/24 01:28:25;;;;;;;2.45;0.28;;;25.40;95.20;;;;;;4957589;29;20031;-84
2022/07/24 01:30:53;;;;;;;0.20;0.20;;;25.40;94.80;;;;;;4956694;28;20031;-83
2022/07/24 01:33:21;;;;;;;0.75;0.20;;;25.40;94.40;;;;;;4955095;28;20086;-82
2022/07/24 01:35:48;;;;;;;0.38;0.38;;;25.40;93.70;;;;;;4953514;28;20036;-83
2022/07/24 01:38:16;;;;;;;0.38;0.22;;;25.70;93.10;;;;;;4948502;28;21645;-87
2022/07/24 01:40:43;;;;;;;1.83;0.32;;;25.50;93.40;;;;;;4953006;29;20035;-86
2022/07/24 01:43:10;;;;;;;0.50;0.20;;;25.40;93.40;;;;;;4950351;29;20040;-84
2022/07/24 01:45:38;;;;;;;1.80;0.25;;;25.70;93.60;;;;;;4953487;29;20027;-83
2022/07/24 01:48:06;;;;;;;1.20;0.28;;;25.60;93.10;;;;;;4950775;28;20027;-76
2022/07/24 01:50:33;;;;;;;0.80;0.50;;;26.10;93.60;;;;;;4948134;28;20046;-80
2022/07/24 01:53:01;;;;;;;1.95;0.30;;;26.60;93.60;;;;;;4947008;28;20143;-79
2022/07/24 01:55:30;;;;;;;1.08;0.20;;;26.70;92.30;;;;;;4944080;29;20035;-84
2022/07/24 01:57:58;;;;;;;0.45;0.30;;;26.50;92.00;;;;;;4948980;29;20490;-79
2022/07/24 02:00:25;;;;;;;1.13;0.20;;;26.10;93.20;;;;;;4949198;28;20031;-81
2022/07/24 02:02:53;;;;;;;0.75;0.30;;;26.00;93.50;;;;;;4947184;28;20078;-78
2022/07/24 02:05:20;;;;;;;0.40;0.30;;;26.10;92.90;;;;;;4951282;28;20042;-79
2022/07/24 02:07:58;;;;;;;1.75;0.28;;;26.50;92.90;;;;;;4947162;28;20035;-84
2022/07/24 02:10:27;;;;;;;0.85;0.25;;;26.90;92.60;;;;;;4948804;28;20042;-85
2022/07/24 02:12:56;;;;;;;1.27;0.30;;;27.00;92.00;;;;;;4945605;28;20043;-83
2022/07/24 02:15:24;;;;;;;0.50;0.20;;;26.80;92.40;;;;;;4948765;28;20050;-82
2022/07/24 02:17:56;;;;;;;0.40;0.17;;;27.00;91.40;;;;;;4944541;29;20036;-82
2022/07/24 02:20:24;;;;;;;0.10;0.10;;;27.20;91.70;;;;;;4946360;28;20032;-83
2022/07/24 02:22:52;;;;;;;1.05;0.17;;;27.10;92.50;;;;;;4948919;29;20564;-82
2022/07/24 02:25:20;;;;;;;0.47;0.10;;;27.10;91.30;;;;;;4953465;29;20407;-84
2022/07/24 02:27:47;;;;;;;0.75;0.20;;;27.10;91.60;;;;;;4954088;28;20181;-81
2022/07/24 02:30:23;;;;;;;1.40;0.10;;;25.60;92.20;;;;;;4949783;28;20153;-84
2022/07/24 02:32:51;;;;;;;2.85;0.20;;;24.10;93.30;;;;;;4944910;29;20054;-84
2022/07/24 02:35:19;;;;;;;0.65;0.10;;;23.20;94.40;;;;;;4951175;29;20371;-83
2022/07/24 02:37:47;;;;;;;0.38;0.20;;;22.60;95.50;;;;;;4942646;29;20027;-84
2022/07/24 02:40:15;;;;;;;1.00;0.10;;;22.50;95.70;;;;;;4949068;29;20039;-79
2022/07/24 02:42:42;;;;;;;0.28;0.10;;;22.20;95.40;;;;;;4949577;29;20432;-82
2022/07/24 02:45:10;;;;;;;1.10;0.17;;;22.40;95.60;;;;;;4951345;28;20056;-80
2022/07/24 02:47:51;;;;;;;0.70;0.10;;;22.20;95.90;;;;;;4940555;29;20071;-80
2022/07/24 02:50:19;;;;;;;1.95;0.10;;;21.50;96.90;;;;;;4942458;28;20429;-78
2022/07/24 02:52:47;;;;;;;0.10;0.10;;;20.90;97.40;;;;;;4947854;29;20456;-81
2022/07/24 02:55:15;;;;;;;0.10;0.10;;;20.80;97.90;;;;;;4952621;28;20023;-83
2022/07/24 02:57:43;;;;;;;2.75;0.17;;;21.20;97.60;;;;;;4941383;28;20580;-83
2022/07/24 03:00:14;;;;;;;1.27;0.40;;;20.90;97.40;;;;;;4951352;29;20023;-83
2022/07/24 03:02:42;;;;;;;1.08;0.10;;;21.00;97.40;;;;;;4946934;28;20062;-82
2022/07/24 03:05:10;;;;;;;0.20;0.10;;;21.10;96.30;;;;;;4950840;29;20032;-81
2022/07/24 03:07:38;;;;;;;0.75;0.30;;;20.30;97.60;;;;;;4948746;28;20520;-80
2022/07/24 03:10:07;;;;;;;0.47;0.10;;;20.70;98.40;;;;;;4951137;29;20047;-83
2022/07/24 03:12:35;;;;;;;2.95;0.22;;;21.40;97.10;;;;;;4945979;28;20567;-81
2022/07/24 03:15:04;;;;;;;0.32;0.10;;;21.80;96.60;;;;;;4950086;28;20390;-83
2022/07/24 03:17:31;;;;;;;1.15;0.10;;;22.20;96.00;;;;;;4937578;28;20057;-80
2022/07/24 03:19:58;;;;;;;1.02;0.10;;;22.50;94.80;;;;;;4952714;28;20563;-80
2022/07/24 03:22:26;;;;;;;0.20;0.10;;;22.90;95.10;;;;;;4948788;28;20046;-83
2022/07/24 03:24:53;;;;;;;0.90;0.88;;;22.60;95.40;;;;;;4951116;29;20036;-80
2022/07/24 03:27:21;;;;;;;0.20;0.10;;;22.50;94.70;;;;;;4946383;28;20043;-81
2022/07/24 03:29:48;;;;;;;0.45;0.10;;;22.10;95.20;;;;;;4955003;28;20106;-83
2022/07/24 03:32:16;;;;;;;0.30;0.10;;;21.50;95.80;;;;;;4951558;28;20058;-80
2022/07/24 03:34:43;;;;;;;0.20;0.10;;;21.50;96.50;;;;;;4955510;28;20051;-81
2022/07/24 03:37:10;;;;;;;0.08;0.08;;;21.40;96.70;;;;;;4950673;28;22336;-83
2022/07/24 03:39:38;;;;;;;0.15;0.10;;;21.10;96.40;;;;;;4951847;28;20035;-79
2022/07/24 03:42:05;;;;;;;0.17;0.17;;;20.80;96.20;;;;;;4954068;28;20051;-80
2022/07/24 03:44:33;;;;;;;1.48;0.10;;;20.60;96.20;;;;;;4955440;29;20051;-79
2022/07/24 03:47:01;;;;;;;3.75;0.17;;;20.50;96.90;;;;;;4933807;29;20039;-77
2022/07/24 03:49:28;;;;;;;1.90;0.22;;;20.20;96.90;;;;;;4950136;28;20396;-78
2022/07/24 03:51:55;;;;;;;0.13;0.00;;;19.90;96.60;;;;;;4948148;28;20514;-79
2022/07/24 03:54:23;;;;;;;2.17;0.10;;;19.80;97.60;;;;;;4952656;29;20039;-82
2022/07/24 03:56:51;;;;;;;1.00;0.10;;;19.60;97.80;;;;;;4950098;28;20027;-84
2022/07/24 03:59:18;;;;;;;0.30;0.10;;;19.30;97.40;;;;;;4945229;29;20070;-83
2022/07/24 04:01:46;;;;;;;0.70;0.20;;;19.00;96.80;;;;;;4945395;29;20031;-86
2022/07/24 04:04:13;;;;;;;1.75;0.10;;;18.90;97.20;;;;;;4939338;29;20042;-84
2022/07/24 04:06:41;;;;;;;0.85;0.28;;;18.90;97.90;;;;;;4944279;28;20027;-83
2022/07/24 04:09:09;;;;;;;0.32;0.10;;;18.90;97.10;;;;;;4946202;29;20094;-81
2022/07/24 04:11:37;;;;;;;0.13;0.10;;;18.80;97.30;;;;;;4943619;28;20123;-86
2022/07/24 04:14:04;;;;;;;0.38;0.10;;;18.90;97.90;;;;;;4944341;29;20024;-81
2022/07/24 04:16:32;;;;;;;1.40;0.00;;;18.90;98.50;;;;;;4943831;29;20533;-87
2022/07/24 04:18:59;;;;;;;0.10;0.10;;;18.80;98.00;;;;;;4944693;29;20110;-81
2022/07/24 04:21:27;;;;;;;0.35;0.10;;;18.80;96.90;;;;;;4944906;29;20387;-85
2022/07/24 04:23:54;;;;;;;0.35;0.10;;;18.80;97.70;;;;;;4949692;29;20155;-87
2022/07/24 04:26:22;;;;;;;0.20;0.10;;;18.80;98.10;;;;;;4949295;28;20143;-86
2022/07/24 04:28:49;;;;;;;0.55;0.20;;;18.80;98.10;;;;;;4944490;28;20023;-84
2022/07/24 04:31:16;;;;;;;0.15;0.10;;;18.70;97.80;;;;;;4943156;29;20474;-77
2022/07/24 04:33:44;;;;;;;0.25;0.13;;;18.60;97.60;;;;;;4944181;28;20058;-78
2022/07/24 04:36:11;;;;;;;0.68;0.20;;;18.70;97.90;;;;;;4942434;29;20023;-79
2022/07/24 04:38:39;;;;;;;2.50;0.73;;;18.70;98.10;;;;;;4946664;29;20094;-78
2022/07/24 04:41:06;;;;;;;0.57;0.28;;;18.80;97.90;;;;;;4947117;28;20536;-75
2022/07/24 04:43:33;;;;;;;0.68;0.20;;;18.80;98.50;;;;;;4945703;28;20036;-77
2022/07/24 04:46:01;;;;;;;0.98;0.50;;;18.70;98.40;;;;;;4950842;28;20055;-77
2022/07/24 04:48:28;;;;;;;1.10;0.50;;;18.60;98.90;;;;;;4951492;28;20392;-77
2022/07/24 04:50:56;;;;;;;1.40;0.82;;;18.50;99.00;;;;;;4956733;29;20035;-78
2022/07/24 04:53:23;;;;;;;1.25;0.70;;;18.30;99.20;;;;;;4958948;28;20122;-80
2022/07/24 04:55:51;;;;;;;2.38;0.50;;;18.30;99.00;;;;;;4950626;28;20023;-81
2022/07/24 04:58:18;;;;;;;2.03;0.68;;;18.30;98.80;;;;;;4953070;28;20031;-78
2022/07/24 05:00:46;;;;;;;2.00;0.50;;;18.30;99.20;;;;;;4953891;29;20031;-82
2022/07/24 05:03:13;;;;;;;2.50;0.70;;;18.20;99.20;;;;;;4950246;29;20043;-79
2022/07/24 05:05:41;;;;;;;1.20;0.43;;;18.20;99.00;;;;;;4946212;28;20036;-77
2022/07/24 05:08:08;;;;;;;2.67;0.40;;;18.10;99.40;;;;;;4951252;28;20031;-77
2022/07/24 05:10:36;;;;;;;2.72;0.85;;;18.10;99.20;;;;;;4953887;29;20055;-76
2022/07/24 05:13:03;;;;;;;2.33;0.60;;;18.10;99.80;;;;;;4950289;29;20031;-77
2022/07/24 05:15:31;;;;;;;1.35;1.05;;;18.10;99.40;;;;;;4951969;28;20512;-78
2022/07/24 05:17:58;;;;;;;4.05;0.80;;;18.10;99.60;;;;;;4949784;28;20402;-74
2022/07/24 05:20:26;;;;;;;0.57;0.28;;;18.10;99.80;;;;;;4952478;29;20027;-76
2022/07/24 05:22:53;;;;;;;1.38;0.50;;;18.10;99.60;;;;;;4938122;28;20047;-80
2022/07/24 05:25:21;;;;;;;2.25;0.50;;;18.10;99.00;;;;;;4950106;28;20135;-78
2022/07/24 05:27:48;;;;;;;2.53;0.30;;;18.10;99.40;;;;;;4945959;29;20035;-75
2022/07/24 05:30:15;;;;;;;0.85;0.38;;;18.00;99.40;;;;;;4943498;28;20110;-77
2022/07/24 05:32:43;;;;;;;1.58;0.50;;;18.00;98.90;;;;;;4949132;29;20043;-76
2022/07/24 05:35:10;;;;;;;3.42;0.52;;;18.00;99.10;;;;;;4953440;29;20031;-78
2022/07/24 05:37:38;;;;;;;2.40;0.40;;;17.90;99.00;;;;;;4932387;28;20032;-76
2022/07/24 05:40:06;;;;;;;3.10;0.70;;;18.00;99.50;;;;;;4940778;29;20106;-77
2022/07/24 05:42:33;;;;;;;4.90;0.95;;;18.00;99.40;;;;;;4948461;29;20180;-79
2022/07/24 05:45:01;;;;;;;3.53;0.50;;;18.00;99.30;;;;;;4941756;28;20027;-77
2022/07/24 05:47:28;;;;;;;6.70;0.90;;;18.00;99.40;;;;;;4952376;29;20055;-76
2022/07/24 05:49:56;;;;;;;2.38;0.57;;;18.00;98.90;;;;;;4950809;28;20031;-78
2022/07/24 05:52:23;;;;;;;0.43;0.30;;;18.00;98.60;;;;;;4948435;29;20249;-77
2022/07/24 05:54:51;;;;;;;0.43;0.20;;;18.00;97.80;;;;;;4943504;28;20390;-79
2022/07/24 05:57:18;;;;;;;2.05;0.52;;;18.10;97.70;;;;;;4946586;29;20027;-79
2022/07/24 05:59:45;;;;;;;0.77;0.30;;;18.20;98.20;;;;;;4943850;28;20508;-76
2022/07/24 06:02:13;;;;;;;0.65;0.40;;;18.20;98.20;;;;;;4943767;28;20562;-79
2022/07/24 06:04:43;;;;;;;1.02;0.22;;;18.20;97.80;;;;;;4946008;29;20031;-75
2022/07/24 06:07:11;;;;;;;0.43;0.22;;;18.20;98.10;;;;;;4942317;28;20035;-76
2022/07/24 06:09:39;;;;;;;1.55;0.32;;;18.20;97.80;;;;;;4950828;28;20039;-74
2022/07/24 06:12:07;;;;;;;1.85;0.45;;;18.30;96.50;;;;;;4947219;29;20043;-77
2022/07/24 06:14:34;;;;;;;0.80;0.30;;;18.40;96.40;;;;;;4951174;29;20174;-75
2022/07/24 06:17:02;;;;;;;0.45;0.20;;;18.40;96.50;;;;;;4945853;28;20154;-76
2022/07/24 06:19:29;;;;;;;0.60;0.25;;;18.50;96.90;;;;;;4948405;28;20066;-77
2022/07/24 06:21:57;;;;;;;0.70;0.35;;;18.50;97.20;;;;;;4941426;29;20077;-76
2022/07/24 06:24:24;;;;;;;1.52;0.55;;;18.50;97.70;;;;;;4928749;29;20359;-75
2022/07/24 06:26:52;;;;;;;0.63;0.52;;;18.50;97.50;;;;;;4949460;29;20027;-75
2022/07/24 06:29:19;;;;;;;1.00;0.30;;;18.50;98.10;;;;;;4949918;28;20162;-78
2022/07/24 06:31:46;;;;;;;2.53;0.45;;;18.50;97.30;;;;;;4947275;29;20040;-76
2022/07/24 06:34:14;;;;;;;0.55;0.30;;;18.50;97.40;;;;;;4952874;29;20047;-78
2022/07/24 06:36:41;;;;;;;0.40;0.30;;;18.40;98.60;;;;;;4949721;28;20038;-82
2022/07/24 06:39:09;;;;;;;0.98;0.20;;;18.30;99.00;;;;;;4953289;29;20137;-77
2022/07/24 06:41:36;;;;;;;1.10;0.52;;;18.20;97.80;;;;;;4948589;29;20034;-81
2022/07/24 06:44:07;;;;;;;0.60;0.52;;;18.10;98.90;;;;;;4951435;28;20050;-81
2022/07/24 06:46:34;;;;;;;1.17;0.20;;;17.90;99.00;;;;;;4942752;28;20042;-77
2022/07/24 06:49:01;;;;;;;2.03;0.50;;;17.70;98.80;;;;;;4948883;29;20080;-80
2022/07/24 06:51:29;;;;;;;0.70;0.50;;;17.40;99.30;;;;;;4946048;29;20086;-81
2022/07/24 06:53:56;;;;;;;1.00;0.20;;;17.20;99.30;;;;;;4949893;29;20568;-77
2022/07/24 06:56:24;;;;;;;2.42;0.85;;;17.00;99.40;;;;;;4942401;28;20059;-75
2022/07/24 06:58:51;;;;;;;2.65;0.32;;;16.80;99.90;;;;;;4948683;29;20027;-84
2022/07/24 07:01:18;;;;;;;0.40;0.28;;;16.60;99.90;;;;;;4932146;29;20391;-76
2022/07/24 07:03:46;;;;;;;0.45;0.30;;;16.50;99.90;;;;;;4950865;29;20122;-83
2022/07/24 07:06:13;;;;;;;1.73;0.30;;;16.40;99.90;;;;;;4949359;28;20423;-75
2022/07/24 07:08:41;;;;;;;1.35;0.13;;;16.30;99.90;;;;;;4948819;29;20409;-74
2022/07/24 07:11:08;;;;;;;0.88;0.65;;;16.20;99.90;;;;;;4936027;29;20027;-77
2022/07/24 07:13:35;;;;;;;1.05;0.30;;;16.10;99.90;;;;;;4951044;29;20031;-74
2022/07/24 07:16:03;;;;;;;0.80;0.30;;;16.00;99.90;;;;;;4950196;28;20062;-80
2022/07/24 07:18:30;;;;;;;3.60;0.50;;;15.80;99.90;;;;;;4943490;28;20020;-77
2022/07/24 07:20:58;;;;;;;1.45;0.47;;;15.70;99.90;;;;;;4950797;29;20038;-77
2022/07/24 07:23:29;;;;;;;1.00;0.50;;;15.60;99.90;;;;;;4948283;28;20040;-74
2022/07/24 07:25:56;;;;;;;2.20;0.50;;;15.50;99.90;;;;;;4934157;29;20059;-75
2022/07/24 07:28:23;;;;;;;2.08;0.82;;;15.40;99.90;;;;;;4950661;29;20031;-81
2022/07/24 07:30:51;;;;;;;2.05;0.45;;;15.30;99.90;;;;;;4951468;29;20050;-77
2022/07/24 07:33:18;;;;;;;2.70;1.73;;;15.20;99.90;;;;;;4951056;29;20047;-78
2022/07/24 07:35:46;;;;;;;6.05;1.20;;;15.10;99.90;;;;;;4952589;29;20082;-76
2022/07/24 07:38:16;;;;;;;1.88;0.60;;;15.10;99.90;;;;;;4948135;28;20502;-79
2022/07/24 07:40:44;;;;;;;4.97;2.15;;;15.10;99.90;;;;;;4949561;29;20090;-76
2022/07/24 07:43:11;;;;;;;8.43;3.70;;;15.10;99.90;;;;;;4950573;29;20043;-80
2022/07/24 07:45:39;;;;;;;3.25;2.03;;;14.90;99.90;;;;;;4952220;28;20119;-73
2022/07/24 07:48:06;;;;;;;4.65;2.75;;;14.90;99.90;;;;;;4942129;29;20094;-75
2022/07/24 07:50:34;;;;;;;5.07;2.42;;;14.80;99.90;;;;;;4949800;29;20042;-77
2022/07/24 07:53:01;;;;;;;4.18;2.75;;;14.70;99.90;;;;;;4935364;28;20090;-74
2022/07/24 07:55:28;;;;;;;5.15;2.15;;;14.60;99.90;;;;;;4949506;29;20019;-76
2022/07/24 07:57:56;;;;;;;3.50;2.67;;;14.50;99.90;;;;;;4949113;28;20024;-80
2022/07/24 08:00:23;;;;;;;4.45;2.78;;;14.40;99.90;;;;;;4950978;29;20027;-82
2022/07/24 08:02:51;;;;;;;4.00;2.30;;;14.40;99.90;;;;;;4947422;28;20497;-76
2022/07/24 08:05:18;;;;;;;4.72;2.88;;;14.30;99.90;;;;;;4951635;29;20035;-74
2022/07/24 08:07:46;;;;;;;4.68;3.15;;;14.20;99.90;;;;;;4945063;29;20034;-77
2022/07/24 08:10:13;;;;;;;7.90;3.72;;;14.20;99.90;;;;;;4942998;28;20035;-75
2022/07/24 08:12:40;;;;;;;8.85;4.22;;;14.10;99.90;;;;;;4947140;28;20118;-75
2022/07/24 08:15:09;;;;;;;10.85;6.50;;;14.00;99.90;;;;;;4952467;29;20061;-74
2022/07/24 08:17:36;;;;;;;13.98;9.65;;;14.00;99.90;;;;;;4949761;28;20043;-76
2022/07/24 08:20:04;;;;;;;15.43;9.95;;;14.00;99.90;;;;;;4953168;28;20106;-75
2022/07/24 08:22:31;;;;;;;10.35;7.90;;;14.00;99.90;;;;;;4949132;29;20690;-78
2022/07/24 08:24:59;;;;;;;10.45;6.28;;;14.00;99.90;;;;;;4938858;29;20045;-74
2022/07/24 08:27:26;;;;;;;19.05;9.85;;;14.10;99.90;;;;;;4946521;29;20124;-77
2022/07/24 08:29:54;;;;;;;26.20;11.48;;;14.10;99.90;;;;;;4952982;28;20094;-74
2022/07/24 08:32:22;;;;;;;19.58;11.40;;;14.00;99.90;;;;;;4949159;29;20058;-76
2022/07/24 08:34:49;;;;;;;19.33;10.05;;;13.90;99.90;;;;;;4954803;29;20051;-76
2022/07/24 08:37:20;;;;;;;13.88;8.82;;;13.80;99.90;;;;;;4953665;29;20026;-82
2022/07/24 08:39:48;;;;;;;13.07;8.43;;;13.70;99.90;;;;;;4952129;29;20493;-75
2022/07/24 08:42:15;;;;;;;15.48;7.38;;;13.70;99.90;;;;;;4951467;29;20504;-79
2022/07/24 08:44:43;;;;;;;11.50;7.32;;;13.60;99.90;;;;;;4940632;29;20039;-76
2022/07/24 08:47:11;;;;;;;11.43;6.65;;;13.60;99.90;;;;;;4953559;28;20378;-74
2022/07/24 08:49:39;;;;;;;10.40;6.82;;;13.50;99.90;;;;;;4952993;29;20031;-78
2022/07/24 08:52:10;;;;;;;7.75;4.63;;;13.40;99.90;;;;;;4948203;28;20031;-75
2022/07/24 08:54:37;;;;;;;11.80;6.57;;;13.40;99.90;;;;;;4947415;29;20525;-73
2022/07/24 08:57:05;;;;;;;17.23;5.47;;;13.30;99.90;;;;;;4946066;29;20023;-77
2022/07/24 08:59:34;;;;;;;8.35;3.70;;;13.40;99.90;;;;;;4955641;28;20461;-78
2022/07/24 09:02:02;;;;;;;6.22;4.40;;;13.30;99.90;;;;;;4954388;28;20498;-77
2022/07/24 09:04:43;;;;;;;4.55;2.90;;;13.20;99.90;;;;;;4954770;28;20034;-76
2022/07/24 09:07:13;;;;;;;6.13;3.63;;;13.20;99.90;;;;;;4950840;29;20028;-78
2022/07/24 09:09:42;;;;;;;3.80;2.22;;;13.10;99.90;;;;;;4952937;28;20064;-83
2022/07/24 09:12:17;;;;;;;5.15;3.22;;;13.00;99.90;;;;;;4951970;29;20078;-80
2022/07/24 09:14:48;;;;;;;3.57;2.73;;;13.00;99.90;;;;;;4948247;29;20471;-79
2022/07/24 09:17:20;;;;;;;5.63;2.75;;;12.90;99.90;;;;;;4939246;28;20058;-79
2022/07/24 09:20:01;;;;;;;3.33;2.67;;;12.90;99.90;;;;;;4947704;29;20054;-78
2022/07/24 09:22:34;;;;;;;4.68;2.30;;;12.80;99.90;;;;;;4948617;29;20047;-79
2022/07/24 09:25:04;;;;;;;3.33;1.70;;;12.70;99.90;;;;;;4945524;28;20439;-79
2022/07/24 09:27:33;;;;;;;5.50;2.40;;;12.60;99.90;;;;;;4945689;28;20046;-77
2022/07/24 09:30:00;;;;;;;4.78;2.03;;;12.50;99.90;;;;;;4945506;29;20130;-78
2022/07/24 09:32:29;;;;;;;3.53;2.00;;;12.50;99.90;;;;;;4944914;28;20027;-80
2022/07/24 09:34:57;;;;;;;7.28;2.80;;;12.50;99.90;;;;;;4915948;29;20585;-80
2022/07/24 09:37:27;;;;;;;7.90;2.55;;;12.50;99.90;;;;;;4925494;29;20035;-78
2022/07/24 09:40:07;;;;;;;6.00;2.60;;;12.40;99.90;;;;;;4925329;29;20036;-79
2022/07/24 09:42:38;;;;;;;4.28;2.17;;;12.30;99.90;;;;;;4922300;29;20058;-76
2022/07/24 09:45:10;;;;;;;4.45;2.08;;;12.30;99.90;;;;;;4928314;29;20530;-84
2022/07/24 09:47:37;;;;;;;3.80;2.10;;;12.30;99.90;;;;;;4930599;29;20087;-82
2022/07/24 09:50:16;;;;;;;3.60;2.20;;;12.30;99.90;;;;;;4926538;29;20047;-75
2022/07/24 09:52:44;;;;;;;3.38;1.63;;;12.20;99.90;;;;;;4927650;29;20055;-78
2022/07/24 09:55:23;;;;;;;3.30;1.92;;;12.20;99.90;;;;;;4923499;29;20024;-76
2022/07/24 09:57:51;;;;;;;6.22;2.33;;;12.20;99.90;;;;;;4932502;29;20032;-76
2022/07/24 10:00:19;;;;;;;6.00;2.10;;;12.10;99.90;;;;;;4929976;29;20035;-76
2022/07/24 10:02:47;;;;;;;3.60;1.90;;;12.10;99.90;;;;;;4930115;29;20384;-79
2022/07/24 10:05:15;;;;;;;5.82;2.33;;;12.10;99.90;;;;;;4932575;29;20043;-83
2022/07/24 10:07:44;;;;;;;7.65;2.30;;;12.00;99.90;;;;;;4933598;29;20134;-79
2022/07/24 10:10:12;;;;;;;4.40;3.00;;;12.00;99.90;;;;;;4931612;29;20038;-81
2022/07/24 10:12:40;;;;;;;5.13;2.15;;;11.90;99.90;;;;;;4944345;29;20049;-81
2022/07/24 10:15:08;;;;;;;8.73;2.28;;;11.90;99.90;;;;;;4929234;29;20035;-80
2022/07/24 10:18:19;;;;;;;4.22;2.17;;;11.90;99.90;;;;;;4925932;29;20047;-77
2022/07/24 10:20:46;;;;;;;10.60;7.10;;;11.90;99.90;;;;;;4930235;29;20042;-81
2022/07/24 10:23:44;;;;;;;20.23;10.60;;;11.90;99.90;;;;;;4928842;29;20798;-80
2022/07/24 10:26:23;;;;;;;26.42;16.45;;;11.90;99.90;;;;;;4930535;29;20031;-76
2022/07/24 10:29:00;;;;;;;36.35;20.15;;;11.90;99.90;;;;;;4915898;29;20391;-80
2022/07/24 10:31:29;;;;;;;35.67;21.50;;;11.80;99.90;;;;;;4926893;29;20545;-78
2022/07/24 10:34:01;;;;;;;35.33;17.73;;;11.80;99.90;;;;;;4941904;29;20057;-78
2022/07/24 10:36:36;;;;;;;24.05;15.15;;;11.80;99.90;;;;;;4945695;28;20336;-80
2022/07/24 10:39:31;;;;;;;20.83;13.27;;;11.70;99.90;;;;;;4942816;29;20126;-78
2022/07/24 10:42:04;;;;;;;16.50;10.80;;;11.70;99.90;;;;;;4943033;28;20522;-76
2022/07/24 10:44:32;;;;;;;16.33;9.52;;;11.70;99.90;;;;;;4946814;29;20074;-78
2022/07/24 10:47:06;;;;;;;15.20;10.80;;;11.60;99.90;;;;;;4946094;29;20051;-81
2022/07/24 10:49:42;;;;;;;15.88;10.48;;;11.60;99.90;;;;;;4951853;29;20106;-75
2022/07/24 10:52:27;;;;;;;17.75;9.60;;;11.60;99.90;;;;;;4943009;28;20094;-78
2022/07/24 10:55:32;;;;;;;16.15;9.55;;;11.50;99.90;;;;;;4946575;28;20054;-76
2022/07/24 10:58:20;;;;;;;13.38;8.98;;;11.50;99.90;;;;;;4946429;28;20050;-76
2022/07/24 11:00:51;;;;;;;29.13;17.38;;;11.30;99.90;;;;;;4932805;28;20039;-78
2022/07/24 11:03:22;;;;;;;22.92;14.95;;;11.30;99.90;;;;;;4947072;29;20114;-77
2022/07/24 11:06:12;;;;;;;17.15;10.40;;;11.30;99.90;;;;;;4946692;28;20175;-89
2022/07/24 11:08:49;;;;;;;15.15;9.38;;;11.20;99.90;;;;;;4943725;29;20027;-79
2022/07/24 11:11:19;;;;;;;15.32;10.32;;;11.20;99.90;;;;;;4946250;29;20024;-79
2022/07/24 11:13:57;;;;;;;14.48;9.55;;;11.20;99.90;;;;;;4943489;29;20372;-85
2022/07/24 11:16:29;;;;;;;11.10;8.02;;;11.20;99.90;;;;;;4950922;29;20036;-82
2022/07/24 11:19:00;;;;;;;14.15;8.77;;;11.20;99.90;;;;;;4945054;28;20036;-83
2022/07/24 11:21:37;;;;;;;16.67;11.20;;;11.20;99.90;;;;;;4952813;29;20054;-79
2022/07/24 11:24:17;;;;;;;15.68;10.70;;;11.10;99.90;;;;;;4948326;28;20043;-80
2022/07/24 11:26:49;;;;;;;22.23;12.88;;;11.10;99.90;;;;;;4941665;29;20054;-78
2022/07/24 11:29:29;;;;;;;18.75;13.20;;;11.10;99.90;;;;;;4946043;28;20525;-84
2022/07/24 11:32:07;;;;;;;12.65;9.60;;;11.00;99.90;;;;;;4940624;29;20040;-83
2022/07/24 11:34:37;;;;;;;13.05;9.40;;;11.00;99.90;;;;;;4940875;29;20084;-79
2022/07/24 11:37:06;;;;;;;11.43;8.40;;;11.00;99.90;;;;;;4941188;29;20062;-76
2022/07/24 11:39:36;;;;;;;9.60;6.13;;;11.00;99.90;;;;;;4940232;28;20499;-81
2022/07/24 11:42:07;;;;;;;8.98;5.53;;;10.90;99.90;;;;;;4949244;28;20050;-77
2022/07/24 11:44:41;;;;;;;9.63;4.95;;;10.90;99.90;;;;;;4949225;29;20035;-78
2022/07/24 11:47:23;;;;;;;7.88;5.43;;;10.90;99.90;;;;;;4945031;28;20035;-81
2022/07/24 11:49:52;;;;;;;10.20;6.88;;;10.90;99.90;;;;;;4944043;28;20034;-80
2022/07/24 11:52:30;;;;;;;15.10;8.40;;;10.80;99.90;;;;;;4947931;28;20023;-78
2022/07/24 11:55:01;;;;;;;13.48;10.13;;;10.80;99.90;;;;;;4949087;29;20035;-80
2022/07/24 11:57:35;;;;;;;14.73;9.63;;;10.70;99.90;;;;;;4949020;28;20023;-77
2022/07/24 12:00:07;;;;;;;15.07;10.20;;;10.60;99.90;;;;;;4949592;28;20086;-76
2022/07/24 12:02:34;;;;;;;16.75;9.70;;;10.60;99.90;;;;;;4941324;28;20562;-76
2022/07/24 12:05:02;;;;;;;14.50;8.82;;;10.50;99.90;;;;;;4945804;29;20492;-77
2022/07/24 12:07:29;;;;;;;17.45;9.52;;;10.50;99.90;;;;;;4943844;29;20090;-77
2022/07/24 12:10:01;;;;;;;11.57;7.97;;;10.50;99.90;;;;;;4943567;29;20438;-76
2022/07/24 12:12:38;;;;;;;15.05;9.38;;;10.40;99.90;;;;;;4948802;29;20122;-78
2022/07/24 12:15:11;;;;;;;12.50;7.53;;;10.30;99.90;;;;;;4950089;29;20031;-78
2022/07/24 12:17:57;;;;;;;10.27;6.82;;;10.20;99.90;;;;;;4948084;29;20039;-77
2022/07/24 12:20:35;;;;;;;7.70;6.05;;;10.20;99.90;;;;;;4946326;28;20062;-78
2022/07/24 12:23:05;;;;;;;9.57;6.32;;;10.10;99.90;;;;;;4943264;29;20031;-77
2022/07/24 12:25:32;;;;;;;9.10;7.13;;;10.10;99.90;;;;;;4953660;28;20046;-78
2022/07/24 12:28:10;;;;;;;11.18;7.88;;;10.00;99.90;;;;;;4940822;28;20041;-76
2022/07/24 12:30:43;;;;;;;8.40;5.85;;;9.90;99.90;;;;;;4945405;29;20035;-78
2022/07/24 12:33:17;;;;;;;9.27;7.20;;;9.90;99.90;;;;;;4951005;28;20047;-77
2022/07/24 12:36:08;;;;;;;13.18;6.72;;;9.90;99.90;;;;;;4949416;28;20038;-76
2022/07/24 12:38:55;;;;;;;9.88;6.50;;;9.90;99.90;;;;;;4946927;28;20502;-78
2022/07/24 12:41:27;;;;;;;10.00;6.05;;;9.90;99.90;;;;;;4937406;28;20042;-78
2022/07/24 12:44:02;;;;;;;8.57;6.10;;;9.90;99.90;;;;;;4943257;28;20070;-77
2022/07/24 12:46:44;;;;;;;7.22;5.43;;;9.90;99.90;;;;;;4953701;28;20027;-78
2022/07/24 12:49:13;;;;;;;7.25;5.47;;;9.90;99.90;;;;;;4951960;29;20063;-76
2022/07/24 12:51:53;;;;;;;8.23;5.05;;;9.90;99.90;;;;;;4945994;28;20111;-77
2022/07/24 12:54:29;;;;;;;7.13;4.60;;;9.90;99.90;;;;;;4950300;28;20032;-76
2022/07/24 12:57:02;;;;;;;6.22;4.15;;;9.90;99.90;;;;;;4933032;28;20486;-77
2022/07/24 12:59:34;;;;;;;6.68;4.18;;;9.90;99.90;;;;;;4950632;28;20083;-75